createdAt,value
2018-12-07T00:00:04.387Z,2.30
2018-12-07T00:02:39.132Z,2.20
2018-12-07T00:05:15.031Z,2.30
2018-12-07T00:07:47.428Z,2.20
2018-12-07T00:10:22.065Z,2.20
2018-12-07T00:12:57.195Z,2.20
2018-12-07T00:15:39.005Z,2.30
2018-12-07T00:18:14.375Z,2.30
2018-12-07T00:20:46.958Z,2.30
2018-12-07T00:23:18.861Z,2.20
2018-12-07T00:25:51.040Z,2.30
2018-12-07T00:28:23.257Z,2.30
2018-12-07T00:30:57.942Z,2.40
2018-12-07T00:33:35.982Z,2.40
2018-12-07T00:36:12.240Z,2.40
2018-12-07T00:38:47.084Z,2.40
2018-12-07T00:41:22.422Z,2.30
2018-12-07T00:43:57.610Z,2.20
2018-12-07T00:46:29.748Z,2.20
2018-12-07T00:49:08.294Z,2.20
2018-12-07T00:51:41.774Z,2.20
2018-12-07T00:54:17.650Z,2.20
2018-12-07T00:56:52.666Z,2.10
2018-12-07T00:59:24.717Z,2.10
2018-12-07T01:02:00.401Z,2.10
2018-12-07T01:04:35.776Z,2.10
2018-12-07T01:07:11.653Z,2.10
2018-12-07T01:09:46.809Z,2.10
2018-12-07T01:12:21.944Z,2.00
2018-12-07T01:14:54.238Z,2.00
2018-12-07T01:17:30.010Z,2.00
2018-12-07T01:20:02.746Z,2.00
2018-12-07T01:22:34.940Z,2.10
2018-12-07T01:25:07.616Z,2.00
2018-12-07T01:27:39.831Z,2.00
2018-12-07T01:30:14.735Z,2.00
2018-12-07T01:32:47.064Z,2.10
2018-12-07T01:35:19.231Z,2.00
2018-12-07T01:37:51.482Z,2.00
2018-12-07T01:40:26.484Z,2.10
2018-12-07T01:43:01.550Z,2.10
2018-12-07T01:45:34.067Z,2.10
2018-12-07T01:48:08.952Z,2.10
2018-12-07T01:50:44.153Z,2.00
2018-12-07T01:53:16.612Z,2.00
2018-12-07T01:55:51.391Z,1.90
2018-12-07T01:58:26.404Z,1.90
2018-12-07T02:01:01.466Z,2.00
2018-12-07T02:03:33.872Z,1.90
2018-12-07T02:06:05.923Z,1.90
2018-12-07T02:08:40.992Z,1.90
2018-12-07T02:11:15.896Z,1.90
2018-12-07T02:13:48.332Z,1.80
2018-12-07T02:16:22.944Z,1.90
2018-12-07T02:18:55.372Z,1.90
2018-12-07T02:21:27.250Z,1.90
2018-12-07T02:24:02.469Z,1.90
2018-12-07T02:26:41.124Z,1.80
2018-12-07T02:29:18.271Z,1.80
2018-12-07T02:31:57.671Z,1.80
2018-12-07T02:34:29.964Z,1.80
2018-12-07T02:37:04.883Z,1.80
2018-12-07T02:39:40.088Z,1.80
2018-12-07T02:42:12.537Z,1.80
2018-12-07T02:44:47.663Z,1.80
2018-12-07T02:47:19.938Z,1.80
2018-12-07T02:49:58.535Z,1.80
2018-12-07T02:52:33.573Z,1.80
2018-12-07T02:55:08.921Z,1.80
2018-12-07T02:57:41.127Z,1.80
2018-12-07T03:00:13.268Z,1.90
2018-12-07T03:02:45.260Z,1.90
2018-12-07T03:05:22.038Z,1.90
2018-12-07T03:07:57.184Z,1.90
2018-12-07T03:10:32.152Z,1.90
2018-12-07T03:13:04.488Z,1.90
2018-12-07T03:15:36.714Z,1.80
2018-12-07T03:18:23.608Z,1.90
2018-12-07T03:20:59.015Z,1.80
2018-12-07T03:23:33.821Z,1.80
2018-12-07T03:26:09.019Z,1.80
2018-12-07T03:28:43.747Z,1.80
2018-12-07T03:31:18.736Z,1.80
2018-12-07T03:33:51.073Z,1.80
2018-12-07T03:36:22.991Z,1.80
2018-12-07T03:38:55.135Z,1.80
2018-12-07T03:41:27.288Z,1.80
2018-12-07T03:44:01.831Z,1.80
2018-12-07T03:47:00.945Z,1.70
2018-12-07T03:49:33.669Z,1.70
2018-12-07T03:52:08.564Z,1.70
2018-12-07T03:54:43.530Z,1.70
2018-12-07T03:57:18.858Z,1.70
2018-12-07T03:59:53.558Z,1.70
2018-12-07T04:02:26.060Z,1.70
2018-12-07T04:05:00.823Z,1.80
2018-12-07T04:07:37.587Z,1.70
2018-12-07T04:10:13.134Z,1.70
2018-12-07T04:12:45.773Z,1.70
2018-12-07T04:15:22.120Z,1.80
2018-12-07T04:17:54.650Z,1.70
2018-12-07T04:20:29.292Z,1.70
2018-12-07T04:23:01.597Z,1.80
2018-12-07T04:25:36.521Z,1.80
2018-12-07T04:28:11.618Z,1.80
2018-12-07T04:30:44.036Z,1.80
2018-12-07T04:33:15.892Z,1.80
2018-12-07T04:35:52.388Z,1.80
2018-12-07T04:38:28.206Z,1.70
2018-12-07T04:41:00.243Z,1.70
2018-12-07T04:43:35.109Z,1.70
2018-12-07T04:46:07.624Z,1.80
2018-12-07T04:48:42.290Z,1.80
2018-12-07T04:51:14.473Z,1.80
2018-12-07T04:53:49.386Z,1.70
2018-12-07T04:56:24.424Z,1.70
2018-12-07T04:58:57.417Z,1.80
2018-12-07T05:01:29.652Z,1.70
2018-12-07T05:04:04.579Z,1.70
2018-12-07T05:06:36.899Z,1.70
2018-12-07T05:09:11.799Z,1.70
2018-12-07T05:11:47.557Z,1.70
2018-12-07T05:14:20.403Z,1.70
2018-12-07T05:16:55.769Z,1.80
2018-12-07T05:19:31.634Z,1.70
2018-12-07T05:22:06.713Z,1.70
2018-12-07T05:24:41.685Z,1.80
2018-12-07T05:27:16.623Z,1.70
2018-12-07T05:29:49.205Z,1.70
2018-12-07T05:32:21.747Z,1.60
2018-12-07T05:34:57.224Z,1.70
2018-12-07T05:37:32.731Z,1.80
2018-12-07T05:40:07.874Z,1.70
2018-12-07T05:42:40.265Z,1.70
2018-12-07T05:45:14.837Z,1.80
2018-12-07T05:47:47.365Z,1.80
2018-12-07T05:50:24.087Z,1.70
2018-12-07T05:52:56.555Z,1.80
2018-12-07T05:55:28.658Z,1.80
2018-12-07T05:58:00.591Z,1.80
2018-12-07T06:00:33.143Z,1.80
2018-12-07T06:03:05.071Z,1.80
2018-12-07T06:05:41.842Z,1.80
2018-12-07T06:08:14.190Z,1.80
2018-12-07T06:10:46.204Z,1.80
2018-12-07T06:13:20.961Z,1.80
2018-12-07T06:15:53.926Z,1.80
2018-12-07T06:18:28.555Z,1.80
2018-12-07T06:21:00.756Z,1.80
2018-12-07T06:23:33.532Z,1.80
2018-12-07T06:26:08.881Z,1.80
2018-12-07T06:28:43.818Z,1.80
2018-12-07T06:31:16.095Z,1.80
2018-12-07T06:33:48.560Z,1.90
2018-12-07T06:36:20.371Z,1.80
2018-12-07T06:38:55.247Z,1.80
2018-12-07T06:41:30.433Z,1.80
2018-12-07T06:44:02.859Z,1.80
2018-12-07T06:46:37.830Z,1.80
2018-12-07T06:49:12.946Z,1.80
2018-12-07T06:51:47.918Z,1.80
2018-12-07T06:54:23.550Z,1.80
2018-12-07T06:56:58.241Z,1.80
2018-12-07T07:09:52.006Z,1.80
2018-12-07T07:25:22.791Z,1.90
2018-12-07T07:27:55.405Z,1.90
2018-12-07T07:30:31.252Z,2.00
2018-12-07T07:33:06.605Z,2.00
2018-12-07T07:35:40.032Z,2.00
2018-12-07T07:38:16.793Z,1.90
2018-12-07T07:40:49.812Z,2.00
2018-12-07T07:43:21.722Z,1.90
2018-12-07T07:45:53.667Z,1.90
2018-12-07T07:48:29.665Z,1.90
2018-12-07T07:54:03.666Z,2.00
2018-12-07T07:56:37.157Z,2.00
2018-12-07T07:59:12.154Z,2.00
2018-12-07T08:01:47.297Z,2.10
2018-12-07T08:04:22.366Z,2.10
2018-12-07T08:06:57.373Z,2.00
2018-12-07T08:09:32.772Z,2.10
2018-12-07T08:12:05.200Z,2.00
2018-12-07T08:14:39.867Z,2.00
2018-12-07T08:17:12.126Z,2.00
2018-12-07T08:19:44.239Z,2.00
2018-12-07T08:22:19.738Z,2.00
2018-12-07T08:24:52.147Z,2.10
2018-12-07T08:27:24.379Z,2.10
2018-12-07T08:29:59.159Z,2.10
2018-12-07T08:32:34.027Z,2.10
2018-12-07T08:35:11.501Z,2.10
2018-12-07T08:37:46.532Z,2.10
2018-12-07T08:40:18.745Z,2.20
2018-12-07T08:42:53.604Z,2.10
2018-12-07T08:45:26.215Z,2.20
2018-12-07T08:47:58.115Z,2.20
2018-12-07T08:50:33.058Z,2.30
2018-12-07T08:53:08.063Z,2.20
2018-12-07T08:55:47.064Z,2.30
2018-12-07T08:58:24.764Z,2.30
2018-12-07T09:00:57.496Z,2.30
2018-12-07T09:03:32.248Z,2.30
2018-12-07T09:06:07.431Z,2.30
2018-12-07T09:08:42.592Z,2.40
2018-12-07T09:11:15.547Z,2.40
2018-12-07T09:13:48.142Z,2.40
2018-12-07T09:16:25.091Z,2.50
2018-12-07T09:18:57.383Z,2.60
2018-12-07T09:21:29.711Z,2.50
2018-12-07T09:24:04.665Z,2.40
2018-12-07T09:26:41.606Z,2.50
2018-12-07T09:29:16.886Z,2.60
2018-12-07T09:31:51.739Z,2.60
2018-12-07T09:34:23.985Z,2.60
2018-12-07T09:36:58.648Z,2.60
2018-12-07T09:39:33.679Z,2.60
2018-12-07T09:42:06.380Z,2.60
2018-12-07T09:44:38.862Z,2.60
2018-12-07T09:47:13.850Z,2.60
2018-12-07T09:49:45.922Z,2.60
2018-12-07T09:52:21.121Z,2.60
2018-12-07T09:54:53.300Z,2.60
2018-12-07T09:57:28.160Z,2.50
2018-12-07T10:00:03.474Z,2.50
2018-12-07T10:02:38.240Z,2.50
2018-12-07T10:05:13.421Z,2.50
2018-12-07T10:07:48.616Z,2.50
2018-12-07T10:10:20.910Z,2.50
2018-12-07T10:12:56.022Z,2.50
2018-12-07T10:15:28.280Z,2.50
2018-12-07T10:18:07.136Z,2.60
2018-12-07T10:20:41.896Z,2.60
2018-12-07T10:23:24.665Z,2.60
2018-12-07T10:25:57.433Z,2.60
2018-12-07T10:28:32.296Z,2.70
2018-12-07T10:31:07.333Z,2.70
2018-12-07T10:33:46.197Z,2.70
2018-12-07T10:36:23.093Z,2.70
2018-12-07T10:38:56.730Z,2.70
2018-12-07T10:41:28.645Z,2.70
2018-12-07T10:44:03.630Z,2.80
2018-12-07T10:46:42.371Z,2.80
2018-12-07T10:49:17.802Z,2.80
2018-12-07T10:51:51.004Z,2.70
2018-12-07T10:54:22.932Z,2.70
2018-12-07T10:56:55.175Z,2.80
2018-12-07T10:59:27.250Z,2.80
2018-12-07T11:02:06.123Z,2.80
2018-12-07T11:04:43.827Z,2.80
2018-12-07T11:07:22.005Z,2.80
2018-12-07T11:10:03.553Z,2.80
2018-12-07T11:12:42.982Z,2.90
2018-12-07T11:15:23.774Z,2.70
2018-12-07T11:18:01.926Z,2.80
2018-12-07T11:20:39.907Z,2.80
2018-12-07T11:23:23.175Z,2.80
2018-12-07T11:29:08.663Z,2.80
2018-12-07T11:31:50.022Z,2.80
2018-12-07T11:34:26.424Z,2.80
2018-12-07T11:36:58.428Z,2.80
2018-12-07T11:39:33.090Z,2.90
2018-12-07T11:42:08.261Z,2.90
2018-12-07T11:44:40.476Z,3.00
2018-12-07T11:47:15.859Z,3.00
2018-12-07T11:49:51.189Z,2.90
2018-12-07T11:52:26.277Z,2.90
2018-12-07T11:54:59.025Z,2.90
2018-12-07T11:57:34.808Z,2.90
2018-12-07T12:00:10.155Z,2.90
2018-12-07T12:02:44.863Z,2.90
2018-12-07T12:05:19.817Z,2.90
2018-12-07T12:07:57.767Z,2.90
2018-12-07T12:10:33.030Z,2.90
2018-12-07T12:13:08.086Z,2.90
2018-12-07T12:15:40.606Z,2.80
2018-12-07T12:18:15.830Z,2.80
2018-12-07T12:20:50.604Z,2.80
2018-12-07T12:23:25.634Z,2.80
2018-12-07T12:25:57.963Z,2.80
2018-12-07T12:28:32.879Z,2.80
2018-12-07T12:31:11.400Z,2.70
2018-12-07T12:33:43.732Z,2.80
2018-12-07T12:36:18.589Z,2.70
2018-12-07T12:42:00.818Z,2.70
2018-12-07T12:44:35.963Z,2.70
2018-12-07T12:47:12.703Z,2.70
2018-12-07T12:49:48.072Z,2.70
2018-12-07T12:52:23.270Z,2.70
2018-12-07T12:54:58.009Z,2.70
2018-12-07T12:57:33.152Z,2.70
2018-12-07T13:00:08.092Z,2.60
2018-12-07T13:02:45.339Z,2.60
2018-12-07T13:05:18.700Z,2.60
2018-12-07T13:07:55.026Z,2.60
2018-12-07T13:10:29.977Z,2.60
2018-12-07T13:13:05.215Z,2.60
2018-12-07T13:15:42.039Z,2.60
2018-12-07T13:18:18.878Z,2.60
2018-12-07T13:20:51.535Z,2.60
2018-12-07T13:23:23.896Z,2.50
2018-12-07T13:25:59.446Z,2.50
2018-12-07T13:28:31.945Z,2.60
2018-12-07T13:31:06.745Z,2.60
2018-12-07T13:33:41.839Z,2.60
2018-12-07T13:36:14.235Z,2.60
2018-12-07T13:38:46.190Z,2.60
2018-12-07T13:41:20.842Z,2.60
2018-12-07T13:43:55.926Z,2.60
2018-12-07T13:46:30.712Z,2.50
2018-12-07T13:49:06.298Z,2.60
2018-12-07T13:51:41.116Z,2.60
2018-12-07T13:54:16.690Z,2.60
2018-12-07T13:56:52.268Z,2.50
2018-12-07T13:59:24.900Z,2.50
2018-12-07T14:02:01.609Z,2.60
2018-12-07T14:04:34.520Z,2.60
2018-12-07T14:07:07.082Z,2.60
2018-12-07T14:09:39.377Z,2.50
2018-12-07T14:12:14.934Z,2.60
2018-12-07T14:14:51.175Z,2.60
2018-12-07T14:17:26.185Z,2.60
2018-12-07T14:20:02.396Z,2.60
2018-12-07T14:22:37.280Z,2.50
2018-12-07T14:25:10.188Z,2.60
2018-12-07T14:27:45.417Z,2.60
2018-12-07T14:30:20.555Z,2.60
2018-12-07T14:32:52.643Z,2.60
2018-12-07T14:35:24.681Z,2.60
2018-12-07T14:38:00.621Z,2.70
2018-12-07T14:40:35.891Z,2.70
2018-12-07T14:43:13.296Z,2.60
2018-12-07T14:45:51.613Z,2.50
2018-12-07T14:48:23.584Z,2.50
2018-12-07T14:50:58.431Z,2.60
2018-12-07T14:53:35.206Z,2.50
2018-12-07T14:56:11.057Z,2.50
2018-12-07T14:58:44.036Z,2.50
2018-12-07T15:01:16.632Z,2.50
2018-12-07T15:03:52.168Z,2.50
2018-12-07T15:06:27.444Z,2.50
2018-12-07T15:09:02.654Z,2.50
2018-12-07T15:11:35.040Z,2.60
2018-12-07T15:14:07.073Z,2.60
2018-12-07T15:16:38.063Z,2.60
2018-12-07T15:19:13.615Z,2.60
2018-12-07T15:21:50.194Z,2.60
2018-12-07T15:24:23.106Z,2.60
2018-12-07T15:26:55.326Z,2.50
2018-12-07T15:29:36.869Z,2.50
2018-12-07T15:32:10.127Z,2.50
2018-12-07T15:34:42.661Z,2.50
2018-12-07T15:37:14.742Z,2.60
2018-12-07T15:39:49.753Z,2.60
2018-12-07T15:42:21.796Z,2.50
2018-12-07T15:44:54.248Z,2.60
2018-12-07T15:47:26.778Z,2.50
2018-12-07T15:49:58.865Z,2.60
2018-12-07T15:52:34.492Z,2.60
2018-12-07T15:55:07.187Z,2.60
2018-12-07T15:57:40.858Z,2.60
2018-12-07T16:00:13.741Z,2.60
2018-12-07T16:02:46.421Z,2.60
2018-12-07T16:05:18.957Z,2.60
2018-12-07T16:07:54.325Z,2.70
2018-12-07T16:10:30.999Z,2.60
2018-12-07T16:13:05.904Z,2.70
2018-12-07T16:15:41.670Z,2.70
2018-12-07T16:18:14.037Z,2.70
2018-12-07T16:20:48.799Z,2.70
2018-12-07T16:23:21.263Z,2.70
2018-12-07T16:25:53.450Z,2.70
2018-12-07T16:28:26.226Z,2.70
2018-12-07T16:30:58.183Z,2.70
2018-12-07T16:33:30.366Z,2.70
2018-12-07T16:36:03.478Z,2.70
2018-12-07T16:38:43.009Z,2.70
2018-12-07T16:41:18.674Z,2.70
2018-12-07T16:43:51.287Z,2.70
2018-12-07T17:01:50.043Z,2.70
2018-12-07T17:04:22.383Z,2.70
2018-12-07T17:06:59.116Z,2.70
2018-12-07T17:09:34.324Z,2.70
2018-12-07T17:12:07.060Z,2.70
2018-12-07T17:14:41.579Z,2.70
2018-12-07T17:17:15.920Z,2.70
2018-12-07T17:19:48.298Z,2.70
2018-12-07T17:22:24.756Z,2.70
2018-12-07T17:24:57.702Z,2.70
2018-12-07T17:27:35.154Z,2.70
2018-12-07T17:30:11.694Z,2.70
2018-12-07T17:32:44.024Z,2.70
2018-12-07T17:35:21.500Z,2.70
2018-12-07T17:37:54.149Z,2.60
2018-12-07T17:40:26.554Z,2.60
2018-12-07T17:42:59.569Z,2.60
2018-12-07T17:45:34.973Z,2.60
2018-12-07T17:48:07.358Z,2.70
2018-12-07T17:50:39.413Z,2.70
2018-12-07T17:53:14.142Z,2.70
2018-12-07T17:55:49.233Z,2.70
2018-12-07T17:58:35.176Z,2.60
2018-12-07T18:01:10.445Z,2.60
2018-12-07T18:03:47.498Z,2.60
2018-12-07T18:14:08.824Z,2.60
2018-12-07T18:16:43.649Z,2.60
2018-12-07T18:19:22.579Z,2.60
2018-12-07T18:21:57.927Z,2.60
2018-12-07T18:24:41.692Z,2.60
2018-12-07T18:27:15.155Z,2.60
2018-12-07T18:29:47.782Z,2.60
2018-12-07T18:32:23.340Z,2.50
2018-12-07T18:35:01.835Z,2.50
2018-12-07T18:37:34.735Z,2.50
2018-12-07T18:40:17.240Z,2.40
2018-12-07T18:42:53.344Z,2.40
2018-12-07T18:45:29.772Z,2.40
2018-12-07T18:48:03.358Z,2.30
2018-12-07T18:50:39.591Z,2.30
2018-12-07T18:53:14.884Z,2.20
2018-12-07T18:55:47.544Z,2.20
2018-12-07T18:58:20.000Z,2.10
2018-12-07T19:00:53.327Z,2.10
2018-12-07T19:03:28.768Z,2.10
2018-12-07T19:06:00.840Z,2.00
2018-12-07T19:08:32.926Z,2.00
2018-12-07T19:11:08.227Z,2.00
2018-12-07T19:13:40.246Z,2.00
2018-12-07T19:16:15.134Z,2.00
2018-12-07T19:18:47.345Z,1.90
2018-12-07T19:21:22.895Z,1.90
2018-12-07T19:23:55.786Z,1.90
2018-12-07T19:26:31.372Z,2.00
2018-12-07T19:29:06.706Z,2.00
2018-12-07T19:31:39.654Z,2.00
2018-12-07T19:34:12.606Z,2.00
2018-12-07T19:36:48.209Z,2.00
2018-12-07T19:39:23.468Z,2.00
2018-12-07T19:42:00.633Z,2.00
2018-12-07T19:44:33.013Z,2.00
2018-12-07T19:47:06.647Z,2.00
2018-12-07T19:49:39.423Z,2.00
2018-12-07T19:52:15.341Z,2.00
2018-12-07T19:54:51.078Z,2.00
2018-12-07T19:57:27.386Z,2.00
2018-12-07T19:59:59.313Z,2.00
2018-12-07T20:02:31.373Z,2.00
2018-12-07T20:05:05.573Z,2.10
2018-12-07T20:07:40.049Z,2.10
2018-12-07T20:10:12.618Z,2.10
2018-12-07T20:12:50.276Z,2.10
2018-12-07T20:15:24.271Z,2.10
2018-12-07T20:18:00.067Z,2.10
2018-12-07T20:20:32.966Z,2.10
2018-12-07T20:23:05.128Z,2.00
2018-12-07T20:25:38.581Z,2.10
2018-12-07T20:28:11.152Z,2.10
2018-12-07T20:30:43.167Z,2.10
2018-12-07T20:33:19.198Z,2.10
2018-12-07T20:35:55.108Z,2.20
2018-12-07T20:41:32.494Z,2.20
2018-12-07T20:44:05.258Z,2.10
2018-12-07T20:46:51.150Z,2.10
2018-12-07T20:49:24.626Z,2.10
2018-12-07T20:52:00.685Z,2.20
2018-12-07T20:54:35.092Z,2.20
2018-12-07T20:57:08.993Z,2.20
2018-12-07T20:59:41.823Z,2.20
2018-12-07T21:02:19.738Z,2.20
2018-12-07T21:04:54.712Z,2.20
2018-12-07T21:07:51.831Z,2.20
2018-12-07T21:10:56.754Z,2.20
2018-12-07T21:17:09.122Z,2.30
2018-12-07T21:19:46.772Z,2.30
2018-12-07T21:22:22.151Z,2.20
2018-12-07T21:24:55.794Z,2.30
2018-12-07T21:27:27.868Z,2.30
2018-12-07T21:30:16.668Z,2.30
2018-12-07T21:32:53.026Z,2.30
2018-12-07T21:35:25.418Z,2.40
2018-12-07T21:38:02.647Z,2.40
2018-12-07T21:43:22.033Z,2.40
2018-12-07T21:45:54.283Z,2.40
2018-12-07T21:48:26.509Z,2.40
2018-12-07T21:51:09.880Z,2.40
2018-12-07T21:53:46.558Z,2.40
2018-12-07T21:56:18.544Z,2.40
2018-12-07T21:58:50.878Z,2.40
2018-12-07T22:01:23.286Z,2.40
2018-12-07T22:03:58.998Z,2.40
2018-12-07T22:06:34.537Z,2.50
2018-12-07T22:09:08.588Z,2.50
2018-12-07T22:11:40.693Z,2.50
2018-12-07T22:14:15.808Z,2.50
2018-12-07T22:16:52.238Z,2.50
2018-12-07T22:19:31.231Z,2.50
2018-12-07T22:22:06.143Z,2.50
2018-12-07T22:24:42.901Z,2.60
2018-12-07T22:27:19.081Z,2.60
2018-12-07T22:29:54.130Z,2.60
2018-12-07T22:32:28.121Z,2.80
2018-12-07T22:35:05.530Z,2.70
2018-12-07T22:37:38.482Z,2.70
2018-12-07T22:40:13.803Z,2.70
2018-12-07T22:42:50.437Z,2.70
2018-12-07T22:45:26.906Z,2.60
2018-12-07T22:48:02.147Z,2.50
2018-12-07T22:50:39.568Z,2.50
2018-12-07T22:53:16.688Z,2.50
2018-12-07T22:55:52.065Z,2.50
2018-12-07T22:58:27.961Z,2.60
2018-12-07T23:01:00.288Z,2.60
2018-12-07T23:03:33.942Z,2.60
2018-12-07T23:06:09.178Z,2.60
2018-12-07T23:08:45.095Z,2.70
2018-12-07T23:11:17.839Z,2.70
2018-12-07T23:13:51.373Z,2.80
2018-12-07T23:16:30.015Z,2.80
2018-12-07T23:19:02.254Z,2.80
2018-12-07T23:21:34.401Z,2.80
2018-12-07T23:24:06.701Z,2.80
2018-12-07T23:26:45.200Z,2.80
2018-12-07T23:29:24.232Z,2.70
2018-12-07T23:31:56.483Z,2.70
2018-12-07T23:34:28.883Z,2.70
2018-12-07T23:37:01.102Z,2.80
2018-12-07T23:39:36.635Z,2.70
2018-12-07T23:42:10.273Z,2.70
2018-12-07T23:44:43.095Z,2.70
2018-12-07T23:47:18.190Z,2.70
2018-12-07T23:49:53.743Z,2.70
2018-12-07T23:52:25.968Z,2.70
2018-12-07T23:55:01.496Z,2.70
2018-12-07T23:57:33.652Z,2.70
